sensor_id;sensor_type;location;lat;lon;timestamp;P1;durP1;ratioP1;P2;durP2;ratioP2
74963;SDS011;63521;51.900;4.748;2023-02-12T00:02:00;2.25;;;1.55;;
74963;SDS011;63521;51.900;4.748;2023-02-12T00:04:25;2.78;;;1.60;;
74963;SDS011;63521;51.900;4.748;2023-02-12T00:06:51;2.50;;;1.50;;
74963;SDS011;63521;51.900;4.748;2023-02-12T00:09:18;2.03;;;1.63;;
74963;SDS011;63521;51.900;4.748;2023-02-12T00:11:47;1.65;;;1.42;;
74963;SDS011;63521;51.900;4.748;2023-02-12T00:14:14;1.83;;;1.50;;
74963;SDS011;63521;51.900;4.748;2023-02-12T00:16:40;1.50;;;1.40;;
74963;SDS011;63521;51.900;4.748;2023-02-12T00:19:05;3.17;;;1.55;;
74963;SDS011;63521;51.900;4.748;2023-02-12T00:21:31;2.70;;;1.50;;
74963;SDS011;63521;51.900;4.748;2023-02-12T00:23:56;2.30;;;1.67;;
74963;SDS011;63521;51.900;4.748;2023-02-12T00:26:22;2.08;;;1.70;;
74963;SDS011;63521;51.900;4.748;2023-02-12T00:28:50;1.98;;;1.55;;
74963;SDS011;63521;51.900;4.748;2023-02-12T00:31:19;2.22;;;1.73;;
74963;SDS011;63521;51.900;4.748;2023-02-12T00:33:46;2.15;;;1.50;;
74963;SDS011;63521;51.900;4.748;2023-02-12T00:36:13;2.20;;;1.52;;
74963;SDS011;63521;51.900;4.748;2023-02-12T00:38:40;1.85;;;1.45;;
74963;SDS011;63521;51.900;4.748;2023-02-12T00:41:07;2.30;;;1.50;;
74963;SDS011;63521;51.900;4.748;2023-02-12T00:43:33;2.00;;;1.40;;
74963;SDS011;63521;51.900;4.748;2023-02-12T00:45:58;2.55;;;1.40;;
74963;SDS011;63521;51.900;4.748;2023-02-12T00:48:24;2.03;;;1.48;;
74963;SDS011;63521;51.900;4.748;2023-02-12T00:50:49;1.63;;;1.42;;
74963;SDS011;63521;51.900;4.748;2023-02-12T00:53:15;2.72;;;1.40;;
74963;SDS011;63521;51.900;4.748;2023-02-12T00:55:41;1.50;;;1.33;;
74963;SDS011;63521;51.900;4.748;2023-02-12T00:58:07;2.33;;;1.70;;
74963;SDS011;63521;51.900;4.748;2023-02-12T01:00:34;2.50;;;1.60;;
74963;SDS011;63521;51.900;4.748;2023-02-12T01:03:00;2.33;;;1.55;;
74963;SDS011;63521;51.900;4.748;2023-02-12T01:05:25;1.85;;;1.42;;
74963;SDS011;63521;51.900;4.748;2023-02-12T01:07:51;2.45;;;1.60;;
74963;SDS011;63521;51.900;4.748;2023-02-12T01:10:18;1.50;;;1.20;;
74963;SDS011;63521;51.900;4.748;2023-02-12T01:12:47;1.80;;;1.30;;
74963;SDS011;63521;51.900;4.748;2023-02-12T01:15:16;2.47;;;1.73;;
74963;SDS011;63521;51.900;4.748;2023-02-12T01:17:43;1.88;;;1.48;;
74963;SDS011;63521;51.900;4.748;2023-02-12T01:20:10;2.38;;;1.50;;
74963;SDS011;63521;51.900;4.748;2023-02-12T01:22:38;2.03;;;1.58;;
74963;SDS011;63521;51.900;4.748;2023-02-12T01:25:04;2.25;;;1.60;;
74963;SDS011;63521;51.900;4.748;2023-02-12T01:27:35;2.38;;;1.50;;
74963;SDS011;63521;51.900;4.748;2023-02-12T01:30:00;2.20;;;1.63;;
74963;SDS011;63521;51.900;4.748;2023-02-12T01:32:26;2.65;;;1.77;;
74963;SDS011;63521;51.900;4.748;2023-02-12T01:34:51;3.00;;;1.73;;
74963;SDS011;63521;51.900;4.748;2023-02-12T01:37:17;1.40;;;1.30;;
74963;SDS011;63521;51.900;4.748;2023-02-12T01:39:42;2.55;;;1.58;;
74963;SDS011;63521;51.900;4.748;2023-02-12T01:42:13;2.35;;;1.63;;
74963;SDS011;63521;51.900;4.748;2023-02-12T01:45:17;2.40;;;1.50;;
74963;SDS011;63521;51.900;4.748;2023-02-12T01:47:37;1.95;;;1.48;;
74963;SDS011;63521;51.900;4.748;2023-02-12T01:50:03;2.35;;;1.58;;
74963;SDS011;63521;51.900;4.748;2023-02-12T01:52:31;1.88;;;1.33;;
74963;SDS011;63521;51.900;4.748;2023-02-12T01:54:59;2.33;;;1.40;;
74963;SDS011;63521;51.900;4.748;2023-02-12T01:57:31;1.70;;;1.25;;
74963;SDS011;63521;51.900;4.748;2023-02-12T01:59:57;1.83;;;1.48;;
74963;SDS011;63521;51.900;4.748;2023-02-12T02:02:24;1.75;;;1.52;;
74963;SDS011;63521;51.900;4.748;2023-02-12T02:04:51;1.92;;;1.48;;
74963;SDS011;63521;51.900;4.748;2023-02-12T02:07:18;2.15;;;1.45;;
74963;SDS011;63521;51.900;4.748;2023-02-12T02:09:44;2.60;;;1.40;;
74963;SDS011;63521;51.900;4.748;2023-02-12T02:12:10;2.15;;;1.35;;
74963;SDS011;63521;51.900;4.748;2023-02-12T02:14:55;1.92;;;1.40;;
74963;SDS011;63521;51.900;4.748;2023-02-12T02:28:26;2.92;;;1.50;;
74963;SDS011;63521;51.900;4.748;2023-02-12T02:39:06;2.22;;;1.50;;
74963;SDS011;63521;51.900;4.748;2023-02-12T02:44:25;1.60;;;1.20;;
74963;SDS011;63521;51.900;4.748;2023-02-12T02:46:55;1.63;;;1.30;;
74963;SDS011;63521;51.900;4.748;2023-02-12T02:49:27;3.17;;;1.42;;
74963;SDS011;63521;51.900;4.748;2023-02-12T02:52:00;1.30;;;1.20;;
74963;SDS011;63521;51.900;4.748;2023-02-12T02:54:32;1.45;;;1.20;;
74963;SDS011;63521;51.900;4.748;2023-02-12T02:57:22;1.40;;;1.20;;
74963;SDS011;63521;51.900;4.748;2023-02-12T02:59:52;1.42;;;1.10;;
74963;SDS011;63521;51.900;4.748;2023-02-12T03:02:26;2.17;;;1.50;;
74963;SDS011;63521;51.900;4.748;2023-02-12T03:04:57;2.17;;;1.40;;
74963;SDS011;63521;51.900;4.748;2023-02-12T03:10:11;1.63;;;1.33;;
74963;SDS011;63521;51.900;4.748;2023-02-12T03:18:18;1.52;;;1.38;;
74963;SDS011;63521;51.900;4.748;2023-02-12T03:20:54;2.75;;;1.70;;
74963;SDS011;63521;51.900;4.748;2023-02-12T03:23:24;2.13;;;1.65;;
74963;SDS011;63521;51.900;4.748;2023-02-12T03:28:22;2.17;;;1.45;;
74963;SDS011;63521;51.900;4.748;2023-02-12T03:30:59;1.92;;;1.27;;
74963;SDS011;63521;51.900;4.748;2023-02-12T03:33:51;1.70;;;1.40;;
74963;SDS011;63521;51.900;4.748;2023-02-12T03:36:34;1.48;;;1.20;;
74963;SDS011;63521;51.900;4.748;2023-02-12T03:39:04;2.88;;;1.45;;
74963;SDS011;63521;51.900;4.748;2023-02-12T03:41:37;1.33;;;1.17;;
74963;SDS011;63521;51.900;4.748;2023-02-12T03:47:03;1.63;;;1.38;;
74963;SDS011;63521;51.900;4.748;2023-02-12T03:52:08;2.08;;;1.40;;
74963;SDS011;63521;51.900;4.748;2023-02-12T03:54:33;2.17;;;1.40;;
74963;SDS011;63521;51.900;4.748;2023-02-12T03:57:05;1.63;;;1.27;;
74963;SDS011;63521;51.900;4.748;2023-02-12T03:59:34;2.70;;;1.42;;
74963;SDS011;63521;51.900;4.748;2023-02-12T04:02:00;1.55;;;1.15;;
74963;SDS011;63521;51.900;4.748;2023-02-12T04:04:26;1.70;;;1.08;;
74963;SDS011;63521;51.900;4.748;2023-02-12T04:06:54;1.83;;;1.10;;
74963;SDS011;63521;51.900;4.748;2023-02-12T04:09:20;2.28;;;1.38;;
74963;SDS011;63521;51.900;4.748;2023-02-12T04:20:10;1.38;;;1.10;;
74963;SDS011;63521;51.900;4.748;2023-02-12T04:25:36;1.98;;;1.23;;
74963;SDS011;63521;51.900;4.748;2023-02-12T04:28:15;1.95;;;1.30;;
74963;SDS011;63521;51.900;4.748;2023-02-12T04:33:39;1.92;;;1.20;;
74963;SDS011;63521;51.900;4.748;2023-02-12T04:36:44;1.52;;;1.13;;
74963;SDS011;63521;51.900;4.748;2023-02-12T04:39:08;1.60;;;1.25;;
74963;SDS011;63521;51.900;4.748;2023-02-12T04:41:36;2.08;;;1.30;;
74963;SDS011;63521;51.900;4.748;2023-02-12T04:46:49;1.75;;;1.20;;
74963;SDS011;63521;51.900;4.748;2023-02-12T04:49:18;2.13;;;1.27;;
74963;SDS011;63521;51.900;4.748;2023-02-12T04:51:44;1.77;;;1.30;;
74963;SDS011;63521;51.900;4.748;2023-02-12T04:54:10;2.47;;;1.50;;
74963;SDS011;63521;51.900;4.748;2023-02-12T04:56:36;2.03;;;1.30;;
74963;SDS011;63521;51.900;4.748;2023-02-12T04:59:01;1.02;;;0.90;;
74963;SDS011;63521;51.900;4.748;2023-02-12T05:01:27;1.40;;;1.20;;
74963;SDS011;63521;51.900;4.748;2023-02-12T05:03:52;1.88;;;1.40;;
74963;SDS011;63521;51.900;4.748;2023-02-12T05:06:18;1.30;;;1.05;;
74963;SDS011;63521;51.900;4.748;2023-02-12T05:08:44;1.10;;;1.00;;
74963;SDS011;63521;51.900;4.748;2023-02-12T05:11:11;2.10;;;1.23;;
74963;SDS011;63521;51.900;4.748;2023-02-12T05:13:37;1.80;;;1.08;;
74963;SDS011;63521;51.900;4.748;2023-02-12T05:16:03;1.35;;;1.20;;
74963;SDS011;63521;51.900;4.748;2023-02-12T05:18:30;2.10;;;1.30;;
74963;SDS011;63521;51.900;4.748;2023-02-12T05:20:56;1.77;;;1.20;;
74963;SDS011;63521;51.900;4.748;2023-02-12T05:23:26;1.40;;;1.10;;
74963;SDS011;63521;51.900;4.748;2023-02-12T05:25:53;1.85;;;1.33;;
74963;SDS011;63521;51.900;4.748;2023-02-12T05:28:18;1.65;;;1.30;;
74963;SDS011;63521;51.900;4.748;2023-02-12T05:30:45;1.23;;;1.13;;
74963;SDS011;63521;51.900;4.748;2023-02-12T05:33:11;1.60;;;1.05;;
74963;SDS011;63521;51.900;4.748;2023-02-12T05:35:36;1.38;;;1.23;;
74963;SDS011;63521;51.900;4.748;2023-02-12T05:38:02;1.63;;;1.17;;
74963;SDS011;63521;51.900;4.748;2023-02-12T05:40:31;1.63;;;1.10;;
74963;SDS011;63521;51.900;4.748;2023-02-12T05:42:56;1.50;;;1.40;;
74963;SDS011;63521;51.900;4.748;2023-02-12T05:45:22;1.45;;;1.20;;
74963;SDS011;63521;51.900;4.748;2023-02-12T05:47:55;1.23;;;1.10;;
74963;SDS011;63521;51.900;4.748;2023-02-12T05:50:21;1.30;;;1.20;;
74963;SDS011;63521;51.900;4.748;2023-02-12T05:52:47;1.52;;;1.30;;
74963;SDS011;63521;51.900;4.748;2023-02-12T05:55:12;1.73;;;1.33;;
74963;SDS011;63521;51.900;4.748;2023-02-12T05:57:38;1.60;;;1.20;;
74963;SDS011;63521;51.900;4.748;2023-02-12T06:00:04;1.88;;;1.17;;
74963;SDS011;63521;51.900;4.748;2023-02-12T06:02:32;1.30;;;1.10;;
74963;SDS011;63521;51.900;4.748;2023-02-12T06:04:58;1.42;;;1.30;;
74963;SDS011;63521;51.900;4.748;2023-02-12T06:07:24;1.77;;;1.20;;
74963;SDS011;63521;51.900;4.748;2023-02-12T06:09:50;2.65;;;1.58;;
74963;SDS011;63521;51.900;4.748;2023-02-12T06:12:15;1.67;;;1.30;;
74963;SDS011;63521;51.900;4.748;2023-02-12T06:14:40;3.13;;;1.60;;
74963;SDS011;63521;51.900;4.748;2023-02-12T06:17:06;1.52;;;1.30;;
74963;SDS011;63521;51.900;4.748;2023-02-12T06:19:33;1.48;;;1.30;;
74963;SDS011;63521;51.900;4.748;2023-02-12T06:21:58;1.75;;;1.27;;
74963;SDS011;63521;51.900;4.748;2023-02-12T06:24:24;2.10;;;1.30;;
74963;SDS011;63521;51.900;4.748;2023-02-12T06:26:50;1.73;;;1.30;;
74963;SDS011;63521;51.900;4.748;2023-02-12T06:29:16;1.65;;;1.10;;
74963;SDS011;63521;51.900;4.748;2023-02-12T06:31:45;1.15;;;1.05;;
74963;SDS011;63521;51.900;4.748;2023-02-12T06:34:13;1.38;;;1.20;;
74963;SDS011;63521;51.900;4.748;2023-02-12T06:36:41;1.80;;;1.30;;
74963;SDS011;63521;51.900;4.748;2023-02-12T06:39:10;2.30;;;1.40;;
74963;SDS011;63521;51.900;4.748;2023-02-12T06:45:18;1.20;;;1.10;;
74963;SDS011;63521;51.900;4.748;2023-02-12T06:47:43;2.17;;;1.30;;
74963;SDS011;63521;51.900;4.748;2023-02-12T06:50:09;1.85;;;1.25;;
74963;SDS011;63521;51.900;4.748;2023-02-12T06:52:35;1.52;;;1.02;;
74963;SDS011;63521;51.900;4.748;2023-02-12T06:55:03;1.35;;;1.20;;
74963;SDS011;63521;51.900;4.748;2023-02-12T07:01:42;1.85;;;1.15;;
74963;SDS011;63521;51.900;4.748;2023-02-12T07:04:07;1.90;;;1.13;;
74963;SDS011;63521;51.900;4.748;2023-02-12T07:06:34;1.42;;;1.13;;
74963;SDS011;63521;51.900;4.748;2023-02-12T07:09:02;1.63;;;1.20;;
74963;SDS011;63521;51.900;4.748;2023-02-12T07:11:29;1.75;;;1.15;;
74963;SDS011;63521;51.900;4.748;2023-02-12T07:13:56;2.05;;;1.40;;
74963;SDS011;63521;51.900;4.748;2023-02-12T07:16:21;1.10;;;1.00;;
74963;SDS011;63521;51.900;4.748;2023-02-12T07:18:47;1.58;;;1.30;;
74963;SDS011;63521;51.900;4.748;2023-02-12T07:21:13;1.50;;;1.02;;
74963;SDS011;63521;51.900;4.748;2023-02-12T07:23:40;1.35;;;1.10;;
74963;SDS011;63521;51.900;4.748;2023-02-12T07:26:06;1.73;;;1.20;;
74963;SDS011;63521;51.900;4.748;2023-02-12T07:28:33;1.17;;;1.08;;
74963;SDS011;63521;51.900;4.748;2023-02-12T07:30:59;1.52;;;1.15;;
74963;SDS011;63521;51.900;4.748;2023-02-12T07:33:35;1.15;;;0.90;;
74963;SDS011;63521;51.900;4.748;2023-02-12T07:36:02;1.20;;;1.10;;
74963;SDS011;63521;51.900;4.748;2023-02-12T07:38:29;1.20;;;1.05;;
74963;SDS011;63521;51.900;4.748;2023-02-12T07:40:54;1.42;;;1.05;;
74963;SDS011;63521;51.900;4.748;2023-02-12T07:43:23;1.75;;;1.13;;
74963;SDS011;63521;51.900;4.748;2023-02-12T07:45:51;1.20;;;1.10;;
74963;SDS011;63521;51.900;4.748;2023-02-12T07:48:18;1.30;;;1.20;;
74963;SDS011;63521;51.900;4.748;2023-02-12T07:50:43;1.08;;;0.98;;
74963;SDS011;63521;51.900;4.748;2023-02-12T07:53:09;1.10;;;0.90;;
74963;SDS011;63521;51.900;4.748;2023-02-12T07:55:34;1.38;;;1.10;;
74963;SDS011;63521;51.900;4.748;2023-02-12T07:58:00;1.10;;;1.00;;
74963;SDS011;63521;51.900;4.748;2023-02-12T08:00:25;1.42;;;1.08;;
74963;SDS011;63521;51.900;4.748;2023-02-12T08:02:52;1.00;;;0.90;;
74963;SDS011;63521;51.900;4.748;2023-02-12T08:05:19;1.58;;;1.05;;
74963;SDS011;63521;51.900;4.748;2023-02-12T08:07:44;3.65;;;2.15;;
74963;SDS011;63521;51.900;4.748;2023-02-12T08:10:10;6.53;;;3.00;;
74963;SDS011;63521;51.900;4.748;2023-02-12T08:12:35;6.55;;;2.65;;
74963;SDS011;63521;51.900;4.748;2023-02-12T08:15:01;4.60;;;2.33;;
74963;SDS011;63521;51.900;4.748;2023-02-12T08:17:29;8.20;;;2.78;;
74963;SDS011;63521;51.900;4.748;2023-02-12T08:19:54;4.22;;;2.25;;
74963;SDS011;63521;51.900;4.748;2023-02-12T08:22:20;6.05;;;2.63;;
74963;SDS011;63521;51.900;4.748;2023-02-12T08:24:46;3.55;;;1.88;;
74963;SDS011;63521;51.900;4.748;2023-02-12T08:27:12;6.93;;;2.35;;
74963;SDS011;63521;51.900;4.748;2023-02-12T08:29:37;3.33;;;1.98;;
74963;SDS011;63521;51.900;4.748;2023-02-12T08:32:03;3.60;;;2.10;;
74963;SDS011;63521;51.900;4.748;2023-02-12T08:34:31;4.15;;;2.05;;
74963;SDS011;63521;51.900;4.748;2023-02-12T08:37:00;3.38;;;1.90;;
74963;SDS011;63521;51.900;4.748;2023-02-12T08:39:26;3.95;;;2.20;;
74963;SDS011;63521;51.900;4.748;2023-02-12T08:41:53;4.30;;;1.90;;
74963;SDS011;63521;51.900;4.748;2023-02-12T08:44:19;3.10;;;2.03;;
74963;SDS011;63521;51.900;4.748;2023-02-12T08:46:46;3.75;;;2.00;;
74963;SDS011;63521;51.900;4.748;2023-02-12T08:49:19;4.18;;;2.03;;
74963;SDS011;63521;51.900;4.748;2023-02-12T08:51:48;3.47;;;2.00;;
74963;SDS011;63521;51.900;4.748;2023-02-12T08:54:21;3.70;;;2.10;;
74963;SDS011;63521;51.900;4.748;2023-02-12T08:56:48;3.20;;;2.00;;
74963;SDS011;63521;51.900;4.748;2023-02-12T08:59:15;5.20;;;1.88;;
74963;SDS011;63521;51.900;4.748;2023-02-12T09:01:41;6.43;;;2.10;;
74963;SDS011;63521;51.900;4.748;2023-02-12T09:04:07;2.72;;;1.70;;
74963;SDS011;63521;51.900;4.748;2023-02-12T09:06:39;3.03;;;1.90;;
74963;SDS011;63521;51.900;4.748;2023-02-12T09:09:05;3.28;;;1.77;;
74963;SDS011;63521;51.900;4.748;2023-02-12T09:11:32;4.10;;;1.85;;
74963;SDS011;63521;51.900;4.748;2023-02-12T09:13:59;3.22;;;1.85;;
74963;SDS011;63521;51.900;4.748;2023-02-12T09:16:26;3.38;;;1.65;;
74963;SDS011;63521;51.900;4.748;2023-02-12T09:18:52;2.85;;;1.70;;
74963;SDS011;63521;51.900;4.748;2023-02-12T09:21:19;3.50;;;1.90;;
74963;SDS011;63521;51.900;4.748;2023-02-12T09:23:46;2.20;;;1.65;;
74963;SDS011;63521;51.900;4.748;2023-02-12T09:26:12;3.83;;;1.98;;
74963;SDS011;63521;51.900;4.748;2023-02-12T09:28:40;2.92;;;1.77;;
74963;SDS011;63521;51.900;4.748;2023-02-12T09:31:10;3.75;;;1.63;;
74963;SDS011;63521;51.900;4.748;2023-02-12T09:33:38;4.28;;;1.88;;
74963;SDS011;63521;51.900;4.748;2023-02-12T09:36:04;4.07;;;1.55;;
74963;SDS011;63521;51.900;4.748;2023-02-12T09:38:32;2.97;;;1.90;;
74963;SDS011;63521;51.900;4.748;2023-02-12T09:43:36;2.28;;;1.45;;
74963;SDS011;63521;51.900;4.748;2023-02-12T09:46:14;2.83;;;1.67;;
74963;SDS011;63521;51.900;4.748;2023-02-12T09:48:56;2.67;;;1.40;;
74963;SDS011;63521;51.900;4.748;2023-02-12T09:51:28;2.60;;;1.50;;
74963;SDS011;63521;51.900;4.748;2023-02-12T09:54:16;2.33;;;1.65;;
74963;SDS011;63521;51.900;4.748;2023-02-12T09:56:41;2.55;;;1.55;;
74963;SDS011;63521;51.900;4.748;2023-02-12T09:59:10;2.75;;;1.63;;
74963;SDS011;63521;51.900;4.748;2023-02-12T10:01:41;3.42;;;1.60;;
74963;SDS011;63521;51.900;4.748;2023-02-12T10:04:08;2.13;;;1.42;;
74963;SDS011;63521;51.900;4.748;2023-02-12T10:06:40;2.60;;;1.55;;
74963;SDS011;63521;51.900;4.748;2023-02-12T10:09:18;1.88;;;1.27;;
74963;SDS011;63521;51.900;4.748;2023-02-12T10:17:41;1.83;;;1.20;;
74963;SDS011;63521;51.900;4.748;2023-02-12T10:22:41;2.28;;;1.35;;
74963;SDS011;63521;51.900;4.748;2023-02-12T10:27:52;2.08;;;1.40;;
74963;SDS011;63521;51.900;4.748;2023-02-12T10:30:34;2.47;;;1.50;;
74963;SDS011;63521;51.900;4.748;2023-02-12T10:33:08;1.75;;;1.27;;
74963;SDS011;63521;51.900;4.748;2023-02-12T10:38:16;2.33;;;1.40;;
74963;SDS011;63521;51.900;4.748;2023-02-12T10:40:44;1.92;;;1.23;;
74963;SDS011;63521;51.900;4.748;2023-02-12T10:43:12;3.15;;;1.52;;
74963;SDS011;63521;51.900;4.748;2023-02-12T10:45:39;2.38;;;1.50;;
74963;SDS011;63521;51.900;4.748;2023-02-12T10:48:08;2.10;;;1.48;;
74963;SDS011;63521;51.900;4.748;2023-02-12T10:50:40;1.95;;;1.38;;
74963;SDS011;63521;51.900;4.748;2023-02-12T10:53:21;2.13;;;1.55;;
74963;SDS011;63521;51.900;4.748;2023-02-12T10:55:49;2.35;;;1.42;;
74963;SDS011;63521;51.900;4.748;2023-02-12T10:58:21;2.38;;;1.70;;
74963;SDS011;63521;51.900;4.748;2023-02-12T11:00:55;1.90;;;1.48;;
74963;SDS011;63521;51.900;4.748;2023-02-12T11:03:22;1.85;;;1.40;;
74963;SDS011;63521;51.900;4.748;2023-02-12T11:05:52;2.33;;;1.50;;
74963;SDS011;63521;51.900;4.748;2023-02-12T11:08:34;1.90;;;1.25;;
74963;SDS011;63521;51.900;4.748;2023-02-12T11:11:02;2.00;;;1.33;;
74963;SDS011;63521;51.900;4.748;2023-02-12T11:13:34;2.10;;;1.35;;
74963;SDS011;63521;51.900;4.748;2023-02-12T11:16:02;2.03;;;1.60;;
74963;SDS011;63521;51.900;4.748;2023-02-12T11:18:33;2.05;;;1.50;;
74963;SDS011;63521;51.900;4.748;2023-02-12T11:21:05;1.92;;;1.30;;
74963;SDS011;63521;51.900;4.748;2023-02-12T11:23:37;2.47;;;1.60;;
74963;SDS011;63521;51.900;4.748;2023-02-12T11:28:51;1.85;;;1.35;;
74963;SDS011;63521;51.900;4.748;2023-02-12T11:31:21;1.95;;;1.40;;
74963;SDS011;63521;51.900;4.748;2023-02-12T11:34:14;2.60;;;1.25;;
74963;SDS011;63521;51.900;4.748;2023-02-12T11:36:48;2.05;;;1.42;;
74963;SDS011;63521;51.900;4.748;2023-02-12T11:39:17;1.92;;;1.30;;
74963;SDS011;63521;51.900;4.748;2023-02-12T11:41:47;2.03;;;1.10;;
74963;SDS011;63521;51.900;4.748;2023-02-12T11:44:31;2.22;;;1.38;;
74963;SDS011;63521;51.900;4.748;2023-02-12T11:47:00;1.80;;;1.15;;
74963;SDS011;63521;51.900;4.748;2023-02-12T11:49:31;2.17;;;1.50;;
74963;SDS011;63521;51.900;4.748;2023-02-12T11:51:58;1.70;;;1.30;;
74963;SDS011;63521;51.900;4.748;2023-02-12T11:54:26;2.33;;;1.50;;
74963;SDS011;63521;51.900;4.748;2023-02-12T11:56:53;2.05;;;1.52;;
74963;SDS011;63521;51.900;4.748;2023-02-12T11:59:35;1.83;;;1.30;;
74963;SDS011;63521;51.900;4.748;2023-02-12T12:04:35;2.13;;;1.40;;
74963;SDS011;63521;51.900;4.748;2023-02-12T12:07:11;1.38;;;1.17;;
74963;SDS011;63521;51.900;4.748;2023-02-12T12:14:36;3.00;;;1.63;;
74963;SDS011;63521;51.900;4.748;2023-02-12T12:17:35;2.15;;;1.30;;
74963;SDS011;63521;51.900;4.748;2023-02-12T12:20:24;2.08;;;1.52;;
74963;SDS011;63521;51.900;4.748;2023-02-12T12:25:50;2.33;;;1.10;;
74963;SDS011;63521;51.900;4.748;2023-02-12T12:34:12;2.70;;;1.40;;
74963;SDS011;63521;51.900;4.748;2023-02-12T12:58:47;1.35;;;1.10;;
74963;SDS011;63521;51.900;4.748;2023-02-12T13:14:57;1.70;;;1.30;;
74963;SDS011;63521;51.900;4.748;2023-02-12T13:20:20;1.73;;;1.17;;
74963;SDS011;63521;51.900;4.748;2023-02-12T13:22:54;1.65;;;1.38;;
74963;SDS011;63521;51.900;4.748;2023-02-12T13:25:26;2.80;;;1.40;;
74963;SDS011;63521;51.900;4.748;2023-02-12T13:27:59;1.45;;;1.00;;
74963;SDS011;63521;51.900;4.748;2023-02-12T13:30:30;1.92;;;1.33;;
74963;SDS011;63521;51.900;4.748;2023-02-12T13:33:11;1.45;;;1.20;;
74963;SDS011;63521;51.900;4.748;2023-02-12T13:35:42;2.40;;;1.38;;
74963;SDS011;63521;51.900;4.748;2023-02-12T13:38:14;1.65;;;1.15;;
74963;SDS011;63521;51.900;4.748;2023-02-12T13:40:43;1.42;;;1.20;;
74963;SDS011;63521;51.900;4.748;2023-02-12T13:48:46;1.55;;;1.45;;
74963;SDS011;63521;51.900;4.748;2023-02-12T13:51:40;1.83;;;1.27;;
74963;SDS011;63521;51.900;4.748;2023-02-12T13:56:53;2.10;;;1.25;;
74963;SDS011;63521;51.900;4.748;2023-02-12T13:59:39;2.78;;;1.42;;
74963;SDS011;63521;51.900;4.748;2023-02-12T14:05:14;2.40;;;1.30;;
74963;SDS011;63521;51.900;4.748;2023-02-12T14:07:47;1.95;;;1.42;;
74963;SDS011;63521;51.900;4.748;2023-02-12T14:10:18;1.70;;;1.30;;
74963;SDS011;63521;51.900;4.748;2023-02-12T14:12:44;2.35;;;1.40;;
74963;SDS011;63521;51.900;4.748;2023-02-12T14:15:23;3.30;;;1.13;;
74963;SDS011;63521;51.900;4.748;2023-02-12T14:17:54;2.10;;;1.33;;
74963;SDS011;63521;51.900;4.748;2023-02-12T14:20:26;1.63;;;1.20;;
74963;SDS011;63521;51.900;4.748;2023-02-12T14:25:45;2.28;;;1.50;;
74963;SDS011;63521;51.900;4.748;2023-02-12T14:28:21;2.15;;;1.30;;
74963;SDS011;63521;51.900;4.748;2023-02-12T14:33:44;1.95;;;1.48;;
74963;SDS011;63521;51.900;4.748;2023-02-12T14:41:47;2.03;;;1.40;;
74963;SDS011;63521;51.900;4.748;2023-02-12T14:46:46;2.20;;;1.40;;
74963;SDS011;63521;51.900;4.748;2023-02-12T14:49:26;1.90;;;1.40;;
74963;SDS011;63521;51.900;4.748;2023-02-12T14:51:57;3.83;;;1.83;;
74963;SDS011;63521;51.900;4.748;2023-02-12T14:56:56;3.85;;;1.80;;
74963;SDS011;63521;51.900;4.748;2023-02-12T14:59:26;2.70;;;1.63;;
74963;SDS011;63521;51.900;4.748;2023-02-12T15:01:52;3.08;;;1.67;;
74963;SDS011;63521;51.900;4.748;2023-02-12T15:04:20;2.50;;;1.63;;
74963;SDS011;63521;51.900;4.748;2023-02-12T15:07:04;2.78;;;1.58;;
74963;SDS011;63521;51.900;4.748;2023-02-12T15:09:34;3.03;;;1.58;;
74963;SDS011;63521;51.900;4.748;2023-02-12T15:12:06;3.05;;;1.60;;
74963;SDS011;63521;51.900;4.748;2023-02-12T15:17:59;2.70;;;1.63;;
74963;SDS011;63521;51.900;4.748;2023-02-12T15:20:32;2.85;;;1.83;;
74963;SDS011;63521;51.900;4.748;2023-02-12T15:22:59;3.08;;;1.73;;
74963;SDS011;63521;51.900;4.748;2023-02-12T15:28:00;3.45;;;1.85;;
74963;SDS011;63521;51.900;4.748;2023-02-12T15:30:42;3.03;;;1.70;;
74963;SDS011;63521;51.900;4.748;2023-02-12T15:33:07;2.65;;;1.48;;
74963;SDS011;63521;51.900;4.748;2023-02-12T15:35:34;2.72;;;1.70;;
74963;SDS011;63521;51.900;4.748;2023-02-12T15:38:01;2.20;;;1.40;;
74963;SDS011;63521;51.900;4.748;2023-02-12T15:40:29;2.50;;;1.50;;
74963;SDS011;63521;51.900;4.748;2023-02-12T15:43:03;3.00;;;1.70;;
74963;SDS011;63521;51.900;4.748;2023-02-12T15:45:31;2.50;;;1.48;;
74963;SDS011;63521;51.900;4.748;2023-02-12T15:48:11;2.55;;;1.55;;
74963;SDS011;63521;51.900;4.748;2023-02-12T15:51:00;3.30;;;1.38;;
74963;SDS011;63521;51.900;4.748;2023-02-12T15:53:30;3.45;;;1.58;;
74963;SDS011;63521;51.900;4.748;2023-02-12T15:55:56;2.60;;;1.70;;
74963;SDS011;63521;51.900;4.748;2023-02-12T15:58:23;2.42;;;1.55;;
74963;SDS011;63521;51.900;4.748;2023-02-12T16:00:51;4.28;;;2.10;;
74963;SDS011;63521;51.900;4.748;2023-02-12T16:03:28;3.28;;;1.80;;
74963;SDS011;63521;51.900;4.748;2023-02-12T16:06:03;4.93;;;2.10;;
74963;SDS011;63521;51.900;4.748;2023-02-12T16:08:39;4.25;;;1.88;;
74963;SDS011;63521;51.900;4.748;2023-02-12T16:11:05;2.88;;;2.03;;
74963;SDS011;63521;51.900;4.748;2023-02-12T16:13:49;4.78;;;1.65;;
74963;SDS011;63521;51.900;4.748;2023-02-12T16:16:18;3.20;;;1.90;;
74963;SDS011;63521;51.900;4.748;2023-02-12T16:22:22;2.85;;;1.65;;
74963;SDS011;63521;51.900;4.748;2023-02-12T16:24:48;3.33;;;1.88;;
74963;SDS011;63521;51.900;4.748;2023-02-12T16:29:47;2.58;;;1.45;;
74963;SDS011;63521;51.900;4.748;2023-02-12T16:32:28;2.78;;;1.67;;
74963;SDS011;63521;51.900;4.748;2023-02-12T16:34:58;3.60;;;1.70;;
74963;SDS011;63521;51.900;4.748;2023-02-12T16:50:55;3.15;;;1.80;;
74963;SDS011;63521;51.900;4.748;2023-02-12T16:55:53;3.75;;;1.60;;
74963;SDS011;63521;51.900;4.748;2023-02-12T16:58:19;3.15;;;1.83;;
74963;SDS011;63521;51.900;4.748;2023-02-12T17:00:44;3.60;;;1.85;;
74963;SDS011;63521;51.900;4.748;2023-02-12T17:03:13;3.50;;;1.60;;
74963;SDS011;63521;51.900;4.748;2023-02-12T17:05:40;3.70;;;2.00;;
74963;SDS011;63521;51.900;4.748;2023-02-12T17:08:14;2.90;;;1.80;;
74963;SDS011;63521;51.900;4.748;2023-02-12T17:10:41;2.92;;;1.60;;
74963;SDS011;63521;51.900;4.748;2023-02-12T17:13:08;2.42;;;1.52;;
74963;SDS011;63521;51.900;4.748;2023-02-12T17:15:36;3.85;;;1.95;;
74963;SDS011;63521;51.900;4.748;2023-02-12T17:18:07;3.20;;;2.00;;
74963;SDS011;63521;51.900;4.748;2023-02-12T17:20:35;3.35;;;1.80;;
74963;SDS011;63521;51.900;4.748;2023-02-12T17:23:01;3.42;;;1.70;;
74963;SDS011;63521;51.900;4.748;2023-02-12T17:25:28;3.47;;;1.92;;
74963;SDS011;63521;51.900;4.748;2023-02-12T17:27:54;4.00;;;2.10;;
74963;SDS011;63521;51.900;4.748;2023-02-12T17:30:20;3.65;;;1.88;;
74963;SDS011;63521;51.900;4.748;2023-02-12T17:32:46;4.35;;;1.98;;
74963;SDS011;63521;51.900;4.748;2023-02-12T17:35:11;4.22;;;1.92;;
74963;SDS011;63521;51.900;4.748;2023-02-12T17:37:38;2.95;;;1.75;;
74963;SDS011;63521;51.900;4.748;2023-02-12T17:40:03;4.13;;;2.22;;
74963;SDS011;63521;51.900;4.748;2023-02-12T17:42:29;3.00;;;1.65;;
74963;SDS011;63521;51.900;4.748;2023-02-12T17:44:54;3.25;;;1.65;;
74963;SDS011;63521;51.900;4.748;2023-02-12T17:47:20;4.68;;;2.08;;
74963;SDS011;63521;51.900;4.748;2023-02-12T17:49:46;4.78;;;1.85;;
74963;SDS011;63521;51.900;4.748;2023-02-12T17:52:11;4.30;;;2.28;;
74963;SDS011;63521;51.900;4.748;2023-02-12T17:54:36;3.97;;;2.10;;
74963;SDS011;63521;51.900;4.748;2023-02-12T17:57:02;4.70;;;1.90;;
74963;SDS011;63521;51.900;4.748;2023-02-12T17:59:28;3.40;;;2.00;;
74963;SDS011;63521;51.900;4.748;2023-02-12T18:01:53;3.88;;;1.90;;
74963;SDS011;63521;51.900;4.748;2023-02-12T18:04:19;3.33;;;1.75;;
74963;SDS011;63521;51.900;4.748;2023-02-12T18:06:46;3.05;;;1.60;;
74963;SDS011;63521;51.900;4.748;2023-02-12T18:09:14;4.50;;;1.92;;
74963;SDS011;63521;51.900;4.748;2023-02-12T18:11:39;4.22;;;2.03;;
74963;SDS011;63521;51.900;4.748;2023-02-12T18:14:07;3.35;;;1.80;;